sensor_id;sensor_type;location;lat;lon;timestamp;pressure;altitude;pressure_sealevel;temperature
71205;BMP180;58935;54.498;18.544;2024-01-11T00:00:30;101309.80;;;0.98
71205;BMP180;58935;54.498;18.544;2024-01-11T00:02:56;101319.20;;;1.00
71205;BMP180;58935;54.498;18.544;2024-01-11T00:05:22;101298.80;;;0.98
71205;BMP180;58935;54.498;18.544;2024-01-11T00:07:48;101305.40;;;1.00
71205;BMP180;58935;54.498;18.544;2024-01-11T00:10:14;101328.40;;;1.00
71205;BMP180;58935;54.498;18.544;2024-01-11T00:12:42;101330.20;;;1.00
71205;BMP180;58935;54.498;18.544;2024-01-11T00:15:09;101333.00;;;0.98
71205;BMP180;58935;54.498;18.544;2024-01-11T00:17:36;101331.40;;;0.92
71205;BMP180;58935;54.498;18.544;2024-01-11T00:20:02;101334.20;;;0.90
71205;BMP180;58935;54.498;18.544;2024-01-11T00:22:28;101317.00;;;0.90
71205;BMP180;58935;54.498;18.544;2024-01-11T00:24:53;101299.60;;;0.90
71205;BMP180;58935;54.498;18.544;2024-01-11T00:27:19;101287.60;;;0.90
71205;BMP180;58935;54.498;18.544;2024-01-11T00:29:44;101285.60;;;1.00
71205;BMP180;58935;54.498;18.544;2024-01-11T00:32:10;101292.60;;;1.00
71205;BMP180;58935;54.498;18.544;2024-01-11T00:34:35;101279.20;;;1.00
71205;BMP180;58935;54.498;18.544;2024-01-11T00:37:02;101287.80;;;1.00
71205;BMP180;58935;54.498;18.544;2024-01-11T00:39:27;101285.40;;;1.00
71205;BMP180;58935;54.498;18.544;2024-01-11T00:41:54;101267.00;;;1.02
71205;BMP180;58935;54.498;18.544;2024-01-11T00:44:20;101263.40;;;1.10
71205;BMP180;58935;54.498;18.544;2024-01-11T00:46:45;101243.60;;;1.10
71205;BMP180;58935;54.498;18.544;2024-01-11T00:49:13;101253.80;;;1.10
71205;BMP180;58935;54.498;18.544;2024-01-11T00:51:41;101253.80;;;1.10
71205;BMP180;58935;54.498;18.544;2024-01-11T00:54:06;101261.00;;;1.10
71205;BMP180;58935;54.498;18.544;2024-01-11T00:56:32;101270.00;;;1.20
71205;BMP180;58935;54.498;18.544;2024-01-11T00:59:00;101272.00;;;1.20
71205;BMP180;58935;54.498;18.544;2024-01-11T01:01:26;101279.60;;;1.20
71205;BMP180;58935;54.498;18.544;2024-01-11T01:03:51;101287.20;;;1.20
71205;BMP180;58935;54.498;18.544;2024-01-11T01:06:22;101296.40;;;1.20
71205;BMP180;58935;54.498;18.544;2024-01-11T01:08:49;101308.20;;;1.20
71205;BMP180;58935;54.498;18.544;2024-01-11T01:11:15;101300.40;;;1.20
71205;BMP180;58935;54.498;18.544;2024-01-11T01:13:40;101294.00;;;1.20
71205;BMP180;58935;54.498;18.544;2024-01-11T01:16:05;101291.80;;;1.20
71205;BMP180;58935;54.498;18.544;2024-01-11T01:18:31;101287.20;;;1.20
71205;BMP180;58935;54.498;18.544;2024-01-11T01:20:56;101277.60;;;1.20
71205;BMP180;58935;54.498;18.544;2024-01-11T01:23:22;101263.00;;;1.20
71205;BMP180;58935;54.498;18.544;2024-01-11T01:25:48;101241.40;;;1.30
71205;BMP180;58935;54.498;18.544;2024-01-11T01:28:14;101235.00;;;1.30
71205;BMP180;58935;54.498;18.544;2024-01-11T01:30:40;101226.60;;;1.30
71205;BMP180;58935;54.498;18.544;2024-01-11T01:33:05;101206.80;;;1.30
71205;BMP180;58935;54.498;18.544;2024-01-11T01:35:31;101207.20;;;1.30
71205;BMP180;58935;54.498;18.544;2024-01-11T01:38:02;101221.80;;;1.30
71205;BMP180;58935;54.498;18.544;2024-01-11T01:40:30;101225.60;;;1.30
71205;BMP180;58935;54.498;18.544;2024-01-11T01:42:59;101213.40;;;1.30
71205;BMP180;58935;54.498;18.544;2024-01-11T01:45:25;101211.60;;;1.30
71205;BMP180;58935;54.498;18.544;2024-01-11T01:47:53;101190.60;;;1.30
71205;BMP180;58935;54.498;18.544;2024-01-11T01:50:22;101196.40;;;1.30
71205;BMP180;58935;54.498;18.544;2024-01-11T01:52:49;101193.60;;;1.30
71205;BMP180;58935;54.498;18.544;2024-01-11T01:55:19;101196.80;;;1.30
71205;BMP180;58935;54.498;18.544;2024-01-11T01:57:47;101192.80;;;1.30
71205;BMP180;58935;54.498;18.544;2024-01-11T02:00:16;101202.40;;;1.30
71205;BMP180;58935;54.498;18.544;2024-01-11T02:02:44;101198.00;;;1.30
71205;BMP180;58935;54.498;18.544;2024-01-11T02:05:12;101190.20;;;1.30
71205;BMP180;58935;54.498;18.544;2024-01-11T02:07:40;101161.00;;;1.30
71205;BMP180;58935;54.498;18.544;2024-01-11T02:10:07;101161.20;;;1.30
71205;BMP180;58935;54.498;18.544;2024-01-11T02:12:35;101157.60;;;1.30
71205;BMP180;58935;54.498;18.544;2024-01-11T02:15:03;101160.40;;;1.30
71205;BMP180;58935;54.498;18.544;2024-01-11T02:17:31;101165.80;;;1.30
71205;BMP180;58935;54.498;18.544;2024-01-11T02:19:57;101164.00;;;1.30
71205;BMP180;58935;54.498;18.544;2024-01-11T02:22:32;101160.60;;;1.30
71205;BMP180;58935;54.498;18.544;2024-01-11T02:24:57;101154.80;;;1.30
71205;BMP180;58935;54.498;18.544;2024-01-11T02:27:23;101148.40;;;1.28
71205;BMP180;58935;54.498;18.544;2024-01-11T02:29:49;101144.20;;;1.30
71205;BMP180;58935;54.498;18.544;2024-01-11T02:32:15;101159.00;;;1.30
71205;BMP180;58935;54.498;18.544;2024-01-11T02:34:41;101157.20;;;1.30
71205;BMP180;58935;54.498;18.544;2024-01-11T02:37:07;101154.60;;;1.30
71205;BMP180;58935;54.498;18.544;2024-01-11T02:39:33;101145.80;;;1.30
71205;BMP180;58935;54.498;18.544;2024-01-11T02:41:59;101128.60;;;1.30
71205;BMP180;58935;54.498;18.544;2024-01-11T02:44:25;101121.40;;;1.30
71205;BMP180;58935;54.498;18.544;2024-01-11T02:46:53;101107.80;;;1.30
71205;BMP180;58935;54.498;18.544;2024-01-11T02:49:19;101104.60;;;1.30
71205;BMP180;58935;54.498;18.544;2024-01-11T02:51:44;101091.80;;;1.30
71205;BMP180;58935;54.498;18.544;2024-01-11T02:54:10;101092.60;;;1.30
71205;BMP180;58935;54.498;18.544;2024-01-11T02:56:38;101094.20;;;1.30
71205;BMP180;58935;54.498;18.544;2024-01-11T02:59:04;101107.60;;;1.30
71205;BMP180;58935;54.498;18.544;2024-01-11T03:01:29;101106.00;;;1.28
71205;BMP180;58935;54.498;18.544;2024-01-11T03:03:56;101095.40;;;1.30
71205;BMP180;58935;54.498;18.544;2024-01-11T03:06:21;101099.00;;;1.20
71205;BMP180;58935;54.498;18.544;2024-01-11T03:08:49;101095.80;;;1.20
71205;BMP180;58935;54.498;18.544;2024-01-11T03:11:15;101097.20;;;1.20
71205;BMP180;58935;54.498;18.544;2024-01-11T03:13:41;101099.40;;;1.20
71205;BMP180;58935;54.498;18.544;2024-01-11T03:16:07;101108.00;;;1.20
71205;BMP180;58935;54.498;18.544;2024-01-11T03:18:32;101107.80;;;1.20
71205;BMP180;58935;54.498;18.544;2024-01-11T03:21:00;101104.20;;;1.20
71205;BMP180;58935;54.498;18.544;2024-01-11T03:23:26;101106.00;;;1.20
71205;BMP180;58935;54.498;18.544;2024-01-11T03:25:53;101098.20;;;1.20
71205;BMP180;58935;54.498;18.544;2024-01-11T03:28:19;101089.40;;;1.20
71205;BMP180;58935;54.498;18.544;2024-01-11T03:30:44;101093.00;;;1.20
71205;BMP180;58935;54.498;18.544;2024-01-11T03:33:10;101104.60;;;1.12
71205;BMP180;58935;54.498;18.544;2024-01-11T03:35:35;101105.80;;;1.10
71205;BMP180;58935;54.498;18.544;2024-01-11T03:38:04;101106.20;;;1.14
71205;BMP180;58935;54.498;18.544;2024-01-11T03:40:31;101107.60;;;1.16
71205;BMP180;58935;54.498;18.544;2024-01-11T03:42:56;101104.40;;;1.10
71205;BMP180;58935;54.498;18.544;2024-01-11T03:45:21;101106.80;;;1.20
71205;BMP180;58935;54.498;18.544;2024-01-11T03:47:47;101113.00;;;1.18
71205;BMP180;58935;54.498;18.544;2024-01-11T03:50:12;101107.00;;;1.20
71205;BMP180;58935;54.498;18.544;2024-01-11T03:52:39;101123.80;;;1.20
71205;BMP180;58935;54.498;18.544;2024-01-11T03:55:07;101109.40;;;1.20
71205;BMP180;58935;54.498;18.544;2024-01-11T03:57:33;101094.20;;;1.20
71205;BMP180;58935;54.498;18.544;2024-01-11T03:59:58;101104.00;;;1.20
71205;BMP180;58935;54.498;18.544;2024-01-11T04:02:27;101105.60;;;1.20
71205;BMP180;58935;54.498;18.544;2024-01-11T04:04:52;101100.60;;;1.20
71205;BMP180;58935;54.498;18.544;2024-01-11T04:07:19;101095.20;;;1.20
71205;BMP180;58935;54.498;18.544;2024-01-11T04:09:47;101088.20;;;1.20
71205;BMP180;58935;54.498;18.544;2024-01-11T04:12:12;101077.40;;;1.20
71205;BMP180;58935;54.498;18.544;2024-01-11T04:14:39;101075.80;;;1.20
71205;BMP180;58935;54.498;18.544;2024-01-11T04:17:06;101068.00;;;1.20
71205;BMP180;58935;54.498;18.544;2024-01-11T04:19:34;101065.00;;;1.20
71205;BMP180;58935;54.498;18.544;2024-01-11T04:21:59;101069.40;;;1.20
71205;BMP180;58935;54.498;18.544;2024-01-11T04:24:25;101068.80;;;1.20
71205;BMP180;58935;54.498;18.544;2024-01-11T04:26:50;101059.60;;;1.20
71205;BMP180;58935;54.498;18.544;2024-01-11T04:29:16;101053.60;;;1.20
71205;BMP180;58935;54.498;18.544;2024-01-11T04:31:41;101059.20;;;1.20
71205;BMP180;58935;54.498;18.544;2024-01-11T04:34:07;101050.80;;;1.20
71205;BMP180;58935;54.498;18.544;2024-01-11T04:36:32;101045.60;;;1.20
71205;BMP180;58935;54.498;18.544;2024-01-11T04:38:58;101039.80;;;1.20
71205;BMP180;58935;54.498;18.544;2024-01-11T04:41:23;101037.60;;;1.20
71205;BMP180;58935;54.498;18.544;2024-01-11T04:43:49;101047.20;;;1.20
71205;BMP180;58935;54.498;18.544;2024-01-11T04:46:17;101053.00;;;1.20
71205;BMP180;58935;54.498;18.544;2024-01-11T04:48:44;101047.00;;;1.20
71205;BMP180;58935;54.498;18.544;2024-01-11T04:51:11;101036.60;;;1.20
71205;BMP180;58935;54.498;18.544;2024-01-11T04:53:38;101051.20;;;1.20
71205;BMP180;58935;54.498;18.544;2024-01-11T04:56:07;101031.20;;;1.20
71205;BMP180;58935;54.498;18.544;2024-01-11T04:58:34;101029.20;;;1.20
71205;BMP180;58935;54.498;18.544;2024-01-11T05:01:00;101018.40;;;1.26
71205;BMP180;58935;54.498;18.544;2024-01-11T05:03:27;101036.60;;;1.30
71205;BMP180;58935;54.498;18.544;2024-01-11T05:05:53;101054.40;;;1.30
71205;BMP180;58935;54.498;18.544;2024-01-11T05:08:18;101054.80;;;1.30
71205;BMP180;58935;54.498;18.544;2024-01-11T05:10:43;101065.40;;;1.30
71205;BMP180;58935;54.498;18.544;2024-01-11T05:13:10;101070.60;;;1.30
71205;BMP180;58935;54.498;18.544;2024-01-11T05:15:38;101064.60;;;1.30
71205;BMP180;58935;54.498;18.544;2024-01-11T05:18:05;101062.60;;;1.30
71205;BMP180;58935;54.498;18.544;2024-01-11T05:20:31;101063.60;;;1.30
71205;BMP180;58935;54.498;18.544;2024-01-11T05:22:57;101053.00;;;1.30
71205;BMP180;58935;54.498;18.544;2024-01-11T05:25:22;101065.20;;;1.30
71205;BMP180;58935;54.498;18.544;2024-01-11T05:27:47;101073.20;;;1.30
71205;BMP180;58935;54.498;18.544;2024-01-11T05:30:13;101072.00;;;1.30
71205;BMP180;58935;54.498;18.544;2024-01-11T05:32:39;101066.00;;;1.30
71205;BMP180;58935;54.498;18.544;2024-01-11T05:35:05;101049.80;;;1.30
71205;BMP180;58935;54.498;18.544;2024-01-11T05:37:33;101050.40;;;1.30
71205;BMP180;58935;54.498;18.544;2024-01-11T05:39:58;101050.40;;;1.38
71205;BMP180;58935;54.498;18.544;2024-01-11T05:42:26;101049.60;;;1.40
71205;BMP180;58935;54.498;18.544;2024-01-11T05:44:54;101060.00;;;1.40
71205;BMP180;58935;54.498;18.544;2024-01-11T05:47:20;101052.20;;;1.40
71205;BMP180;58935;54.498;18.544;2024-01-11T05:49:50;101051.60;;;1.40
71205;BMP180;58935;54.498;18.544;2024-01-11T05:52:15;101045.20;;;1.50
71205;BMP180;58935;54.498;18.544;2024-01-11T05:54:41;101048.60;;;1.50
71205;BMP180;58935;54.498;18.544;2024-01-11T05:57:06;101056.40;;;1.50
71205;BMP180;58935;54.498;18.544;2024-01-11T05:59:35;101057.00;;;1.52
71205;BMP180;58935;54.498;18.544;2024-01-11T06:02:01;101056.20;;;1.52
71205;BMP180;58935;54.498;18.544;2024-01-11T06:04:27;101059.80;;;1.56
71205;BMP180;58935;54.498;18.544;2024-01-11T06:06:52;101067.00;;;1.60
71205;BMP180;58935;54.498;18.544;2024-01-11T06:09:18;101053.00;;;1.60
71205;BMP180;58935;54.498;18.544;2024-01-11T06:11:43;101051.20;;;1.60
71205;BMP180;58935;54.498;18.544;2024-01-11T06:14:11;101050.40;;;1.60
71205;BMP180;58935;54.498;18.544;2024-01-11T06:16:36;101041.80;;;1.60
71205;BMP180;58935;54.498;18.544;2024-01-11T06:19:04;101040.40;;;1.56
71205;BMP180;58935;54.498;18.544;2024-01-11T06:21:32;101037.80;;;1.56
71205;BMP180;58935;54.498;18.544;2024-01-11T06:23:57;101032.20;;;1.50
71205;BMP180;58935;54.498;18.544;2024-01-11T06:26:23;101030.40;;;1.50
71205;BMP180;58935;54.498;18.544;2024-01-11T06:28:48;101026.20;;;1.50
71205;BMP180;58935;54.498;18.544;2024-01-11T06:31:16;101029.80;;;1.50
71205;BMP180;58935;54.498;18.544;2024-01-11T06:33:43;101044.40;;;1.50
71205;BMP180;58935;54.498;18.544;2024-01-11T06:36:09;101042.40;;;1.50
71205;BMP180;58935;54.498;18.544;2024-01-11T06:38:34;101045.60;;;1.50
71205;BMP180;58935;54.498;18.544;2024-01-11T06:41:00;101046.00;;;1.50
71205;BMP180;58935;54.498;18.544;2024-01-11T06:43:26;101050.80;;;1.50
71205;BMP180;58935;54.498;18.544;2024-01-11T06:45:51;101064.60;;;1.50
71205;BMP180;58935;54.498;18.544;2024-01-11T06:48:18;101061.00;;;1.60
71205;BMP180;58935;54.498;18.544;2024-01-11T06:50:43;101062.60;;;1.60
71205;BMP180;58935;54.498;18.544;2024-01-11T06:53:11;101064.00;;;1.60
71205;BMP180;58935;54.498;18.544;2024-01-11T06:55:37;101061.20;;;1.60
71205;BMP180;58935;54.498;18.544;2024-01-11T06:58:03;101064.20;;;1.60
71205;BMP180;58935;54.498;18.544;2024-01-11T07:00:31;101067.40;;;1.60
71205;BMP180;58935;54.498;18.544;2024-01-11T07:02:56;101072.20;;;1.60
71205;BMP180;58935;54.498;18.544;2024-01-11T07:05:26;101082.80;;;1.60
71205;BMP180;58935;54.498;18.544;2024-01-11T07:07:54;101084.00;;;1.60
71205;BMP180;58935;54.498;18.544;2024-01-11T07:10:21;101083.80;;;1.60
71205;BMP180;58935;54.498;18.544;2024-01-11T07:12:47;101079.60;;;1.60
71205;BMP180;58935;54.498;18.544;2024-01-11T07:15:13;101073.40;;;1.60
71205;BMP180;58935;54.498;18.544;2024-01-11T07:17:40;101074.40;;;1.60
71205;BMP180;58935;54.498;18.544;2024-01-11T07:20:06;101071.60;;;1.60
71205;BMP180;58935;54.498;18.544;2024-01-11T07:22:33;101069.60;;;1.60
71205;BMP180;58935;54.498;18.544;2024-01-11T07:24:58;101068.00;;;1.60
71205;BMP180;58935;54.498;18.544;2024-01-11T07:27:26;101071.40;;;1.60
71205;BMP180;58935;54.498;18.544;2024-01-11T07:29:51;101076.40;;;1.60
71205;BMP180;58935;54.498;18.544;2024-01-11T07:32:16;101084.80;;;1.60
71205;BMP180;58935;54.498;18.544;2024-01-11T07:34:42;101084.00;;;1.60
71205;BMP180;58935;54.498;18.544;2024-01-11T07:37:09;101076.80;;;1.60
71205;BMP180;58935;54.498;18.544;2024-01-11T07:39:35;101079.60;;;1.62
71205;BMP180;58935;54.498;18.544;2024-01-11T07:42:02;101079.60;;;1.70
71205;BMP180;58935;54.498;18.544;2024-01-11T07:44:28;101076.00;;;1.70
71205;BMP180;58935;54.498;18.544;2024-01-11T07:46:54;101085.40;;;1.72
71205;BMP180;58935;54.498;18.544;2024-01-11T07:49:19;101094.40;;;1.80
71205;BMP180;58935;54.498;18.544;2024-01-11T07:51:45;101079.60;;;1.80
71205;BMP180;58935;54.498;18.544;2024-01-11T07:54:11;101083.60;;;1.80
71205;BMP180;58935;54.498;18.544;2024-01-11T07:56:36;101098.20;;;1.84
71205;BMP180;58935;54.498;18.544;2024-01-11T07:59:01;101092.80;;;1.90
71205;BMP180;58935;54.498;18.544;2024-01-11T08:01:30;101094.00;;;1.90
71205;BMP180;58935;54.498;18.544;2024-01-11T08:03:55;101090.00;;;1.90
71205;BMP180;58935;54.498;18.544;2024-01-11T08:06:21;101083.80;;;1.90
71205;BMP180;58935;54.498;18.544;2024-01-11T08:08:46;101083.60;;;2.00
71205;BMP180;58935;54.498;18.544;2024-01-11T08:11:17;101077.60;;;2.00
71205;BMP180;58935;54.498;18.544;2024-01-11T08:13:43;101081.60;;;2.10
71205;BMP180;58935;54.498;18.544;2024-01-11T08:16:09;101092.20;;;2.10
71205;BMP180;58935;54.498;18.544;2024-01-11T08:18:40;101084.40;;;2.16
71205;BMP180;58935;54.498;18.544;2024-01-11T08:21:07;101074.80;;;2.20
71205;BMP180;58935;54.498;18.544;2024-01-11T08:23:34;101077.60;;;2.20
71205;BMP180;58935;54.498;18.544;2024-01-11T08:26:02;101072.80;;;2.30
71205;BMP180;58935;54.498;18.544;2024-01-11T08:28:30;101068.20;;;2.40
71205;BMP180;58935;54.498;18.544;2024-01-11T08:30:57;101071.40;;;2.40
71205;BMP180;58935;54.498;18.544;2024-01-11T08:33:22;101066.20;;;2.50
71205;BMP180;58935;54.498;18.544;2024-01-11T08:35:47;101062.60;;;2.58
71205;BMP180;58935;54.498;18.544;2024-01-11T08:38:13;101064.40;;;2.60
71205;BMP180;58935;54.498;18.544;2024-01-11T08:40:38;101066.60;;;2.60
71205;BMP180;58935;54.498;18.544;2024-01-11T08:43:04;101056.00;;;2.60
71205;BMP180;58935;54.498;18.544;2024-01-11T08:45:31;101054.40;;;2.60
71205;BMP180;58935;54.498;18.544;2024-01-11T08:47:57;101056.40;;;2.64
71205;BMP180;58935;54.498;18.544;2024-01-11T08:50:23;101055.80;;;2.70
71205;BMP180;58935;54.498;18.544;2024-01-11T08:52:50;101062.00;;;2.70
71205;BMP180;58935;54.498;18.544;2024-01-11T08:55:18;101059.20;;;2.80
71205;BMP180;58935;54.498;18.544;2024-01-11T08:57:45;101059.60;;;2.80
71205;BMP180;58935;54.498;18.544;2024-01-11T09:00:12;101050.20;;;2.80
71205;BMP180;58935;54.498;18.544;2024-01-11T09:02:43;101053.80;;;2.86
71205;BMP180;58935;54.498;18.544;2024-01-11T09:05:09;101054.60;;;2.90
71205;BMP180;58935;54.498;18.544;2024-01-11T09:07:34;101060.80;;;2.90
71205;BMP180;58935;54.498;18.544;2024-01-11T09:10:00;101064.40;;;2.90
71205;BMP180;58935;54.498;18.544;2024-01-11T09:12:25;101061.40;;;2.90
71205;BMP180;58935;54.498;18.544;2024-01-11T09:14:50;101062.80;;;2.90
71205;BMP180;58935;54.498;18.544;2024-01-11T09:17:16;101060.60;;;2.90
71205;BMP180;58935;54.498;18.544;2024-01-11T09:19:41;101074.60;;;2.90
71205;BMP180;58935;54.498;18.544;2024-01-11T09:22:07;101068.20;;;2.90
71205;BMP180;58935;54.498;18.544;2024-01-11T09:24:36;101074.80;;;2.90
71205;BMP180;58935;54.498;18.544;2024-01-11T09:27:01;101059.40;;;2.90
71205;BMP180;58935;54.498;18.544;2024-01-11T09:29:30;101058.80;;;2.90
71205;BMP180;58935;54.498;18.544;2024-01-11T09:31:58;101062.40;;;2.92
71205;BMP180;58935;54.498;18.544;2024-01-11T09:34:25;101064.20;;;3.00
71205;BMP180;58935;54.498;18.544;2024-01-11T09:36:50;101061.60;;;3.00
71205;BMP180;58935;54.498;18.544;2024-01-11T09:39:16;101064.40;;;3.10
71205;BMP180;58935;54.498;18.544;2024-01-11T09:41:52;101063.80;;;3.10
71205;BMP180;58935;54.498;18.544;2024-01-11T09:44:25;101061.00;;;3.20
71205;BMP180;58935;54.498;18.544;2024-01-11T09:46:52;101064.40;;;3.20
71205;BMP180;58935;54.498;18.544;2024-01-11T09:49:22;101050.20;;;3.20
71205;BMP180;58935;54.498;18.544;2024-01-11T09:51:49;101057.60;;;3.24
71205;BMP180;58935;54.498;18.544;2024-01-11T09:54:15;101061.00;;;3.20
71205;BMP180;58935;54.498;18.544;2024-01-11T09:56:43;101061.00;;;3.26
71205;BMP180;58935;54.498;18.544;2024-01-11T09:59:09;101058.40;;;3.28
71205;BMP180;58935;54.498;18.544;2024-01-11T10:01:36;101067.60;;;3.26
71205;BMP180;58935;54.498;18.544;2024-01-11T10:04:02;101067.20;;;3.20
71205;BMP180;58935;54.498;18.544;2024-01-11T10:06:32;101071.60;;;3.20
71205;BMP180;58935;54.498;18.544;2024-01-11T10:09:01;101069.00;;;3.22
71205;BMP180;58935;54.498;18.544;2024-01-11T10:11:27;101066.80;;;3.26
71205;BMP180;58935;54.498;18.544;2024-01-11T10:13:57;101068.40;;;3.30
71205;BMP180;58935;54.498;18.544;2024-01-11T10:16:23;101073.40;;;3.30
71205;BMP180;58935;54.498;18.544;2024-01-11T10:18:54;101082.40;;;3.30
71205;BMP180;58935;54.498;18.544;2024-01-11T10:21:23;101081.40;;;3.30
71205;BMP180;58935;54.498;18.544;2024-01-11T10:23:51;101083.00;;;3.30
71205;BMP180;58935;54.498;18.544;2024-01-11T10:26:18;101078.20;;;3.30
71205;BMP180;58935;54.498;18.544;2024-01-11T10:28:45;101071.80;;;3.20
71205;BMP180;58935;54.498;18.544;2024-01-11T10:31:13;101071.60;;;3.20
71205;BMP180;58935;54.498;18.544;2024-01-11T10:33:40;101065.20;;;3.20
71205;BMP180;58935;54.498;18.544;2024-01-11T10:36:06;101064.80;;;3.22
71205;BMP180;58935;54.498;18.544;2024-01-11T10:38:37;101062.80;;;3.20
71205;BMP180;58935;54.498;18.544;2024-01-11T10:41:06;101066.40;;;3.30
71205;BMP180;58935;54.498;18.544;2024-01-11T10:43:37;101060.00;;;3.30
71205;BMP180;58935;54.498;18.544;2024-01-11T10:46:04;101060.20;;;3.30
71205;BMP180;58935;54.498;18.544;2024-01-11T10:48:37;101065.60;;;3.30
71205;BMP180;58935;54.498;18.544;2024-01-11T10:51:08;101074.40;;;3.30
71205;BMP180;58935;54.498;18.544;2024-01-11T10:53:44;101072.60;;;3.30
71205;BMP180;58935;54.498;18.544;2024-01-11T10:56:15;101082.60;;;3.30
71205;BMP180;58935;54.498;18.544;2024-01-11T10:58:43;101091.00;;;3.30
71205;BMP180;58935;54.498;18.544;2024-01-11T11:01:11;101105.80;;;3.30
71205;BMP180;58935;54.498;18.544;2024-01-11T11:03:39;101093.20;;;3.20
71205;BMP180;58935;54.498;18.544;2024-01-11T11:06:06;101096.40;;;3.20
71205;BMP180;58935;54.498;18.544;2024-01-11T11:08:33;101092.60;;;3.14
71205;BMP180;58935;54.498;18.544;2024-01-11T11:11:03;101091.80;;;3.10
71205;BMP180;58935;54.498;18.544;2024-01-11T11:13:32;101086.20;;;3.10
71205;BMP180;58935;54.498;18.544;2024-01-11T11:16:00;101087.60;;;3.10
71205;BMP180;58935;54.498;18.544;2024-01-11T11:18:30;101090.40;;;3.02
71205;BMP180;58935;54.498;18.544;2024-01-11T11:21:00;101089.60;;;3.00
71205;BMP180;58935;54.498;18.544;2024-01-11T11:23:26;101087.60;;;3.00
71205;BMP180;58935;54.498;18.544;2024-01-11T11:25:54;101081.40;;;3.00
71205;BMP180;58935;54.498;18.544;2024-01-11T11:28:22;101080.80;;;3.00
71205;BMP180;58935;54.498;18.544;2024-01-11T11:30:49;101076.20;;;2.92
71205;BMP180;58935;54.498;18.544;2024-01-11T11:33:23;101077.20;;;2.90
71205;BMP180;58935;54.498;18.544;2024-01-11T11:35:54;101076.00;;;2.90
71205;BMP180;58935;54.498;18.544;2024-01-11T11:38:26;101073.80;;;2.90
71205;BMP180;58935;54.498;18.544;2024-01-11T11:40:59;101066.80;;;2.88
71205;BMP180;58935;54.498;18.544;2024-01-11T11:43:29;101069.00;;;2.90
71205;BMP180;58935;54.498;18.544;2024-01-11T11:45:56;101062.20;;;2.90
71205;BMP180;58935;54.498;18.544;2024-01-11T11:51:17;101066.40;;;2.96
71205;BMP180;58935;54.498;18.544;2024-01-11T11:53:45;101069.80;;;3.00
71205;BMP180;58935;54.498;18.544;2024-01-11T11:56:11;101065.00;;;3.00
71205;BMP180;58935;54.498;18.544;2024-01-11T11:58:38;101062.40;;;3.00
71205;BMP180;58935;54.498;18.544;2024-01-11T12:01:04;101062.20;;;3.00
71205;BMP180;58935;54.498;18.544;2024-01-11T12:03:33;101064.80;;;3.00
71205;BMP180;58935;54.498;18.544;2024-01-11T12:06:00;101071.20;;;3.00
71205;BMP180;58935;54.498;18.544;2024-01-11T12:08:26;101066.40;;;3.10
71205;BMP180;58935;54.498;18.544;2024-01-11T12:10:53;101076.20;;;3.06
71205;BMP180;58935;54.498;18.544;2024-01-11T12:13:19;101073.60;;;3.00
71205;BMP180;58935;54.498;18.544;2024-01-11T12:15:48;101070.80;;;3.02
71205;BMP180;58935;54.498;18.544;2024-01-11T12:18:14;101066.80;;;3.06
71205;BMP180;58935;54.498;18.544;2024-01-11T12:20:40;101062.80;;;3.00
71205;BMP180;58935;54.498;18.544;2024-01-11T12:23:06;101064.80;;;3.00
71205;BMP180;58935;54.498;18.544;2024-01-11T12:25:32;101055.80;;;3.00
71205;BMP180;58935;54.498;18.544;2024-01-11T12:27:59;101049.40;;;3.00
71205;BMP180;58935;54.498;18.544;2024-01-11T12:30:27;101053.40;;;3.10
71205;BMP180;58935;54.498;18.544;2024-01-11T12:32:53;101062.40;;;3.20
71205;BMP180;58935;54.498;18.544;2024-01-11T12:35:20;101074.20;;;3.30
71205;BMP180;58935;54.498;18.544;2024-01-11T12:40:21;101070.60;;;3.20
71205;BMP180;58935;54.498;18.544;2024-01-11T12:42:48;101068.80;;;3.20
71205;BMP180;58935;54.498;18.544;2024-01-11T12:45:16;101069.20;;;3.20
71205;BMP180;58935;54.498;18.544;2024-01-11T12:47:43;101065.80;;;3.20
71205;BMP180;58935;54.498;18.544;2024-01-11T12:50:12;101063.00;;;3.20
71205;BMP180;58935;54.498;18.544;2024-01-11T12:52:38;101057.60;;;3.20
71205;BMP180;58935;54.498;18.544;2024-01-11T12:55:07;101057.40;;;3.20
71205;BMP180;58935;54.498;18.544;2024-01-11T12:57:33;101055.80;;;3.20
71205;BMP180;58935;54.498;18.544;2024-01-11T13:02:33;101057.80;;;3.20
71205;BMP180;58935;54.498;18.544;2024-01-11T13:04:59;101061.80;;;3.20
71205;BMP180;58935;54.498;18.544;2024-01-11T13:07:27;101050.20;;;3.20
71205;BMP180;58935;54.498;18.544;2024-01-11T13:09:52;101064.20;;;3.20
71205;BMP180;58935;54.498;18.544;2024-01-11T13:12:17;101068.00;;;3.20
71205;BMP180;58935;54.498;18.544;2024-01-11T13:14:46;101064.60;;;3.20
71205;BMP180;58935;54.498;18.544;2024-01-11T13:17:12;101064.60;;;3.20
71205;BMP180;58935;54.498;18.544;2024-01-11T13:19:38;101075.80;;;3.20
71205;BMP180;58935;54.498;18.544;2024-01-11T13:22:04;101075.20;;;3.20
71205;BMP180;58935;54.498;18.544;2024-01-11T13:24:30;101082.20;;;3.20
71205;BMP180;58935;54.498;18.544;2024-01-11T13:26:56;101082.20;;;3.20
71205;BMP180;58935;54.498;18.544;2024-01-11T13:29:24;101088.80;;;3.20
71205;BMP180;58935;54.498;18.544;2024-01-11T13:31:49;101086.60;;;3.20
71205;BMP180;58935;54.498;18.544;2024-01-11T13:34:18;101098.60;;;3.20
71205;BMP180;58935;54.498;18.544;2024-01-11T13:36:46;101100.20;;;3.20
71205;BMP180;58935;54.498;18.544;2024-01-11T13:39:11;101102.20;;;3.20
71205;BMP180;58935;54.498;18.544;2024-01-11T13:41:37;101105.80;;;3.10
71205;BMP180;58935;54.498;18.544;2024-01-11T13:44:03;101115.60;;;3.10
71205;BMP180;58935;54.498;18.544;2024-01-11T13:46:32;101110.80;;;3.10
71205;BMP180;58935;54.498;18.544;2024-01-11T13:48:58;101110.00;;;3.10
71205;BMP180;58935;54.498;18.544;2024-01-11T13:51:23;101120.40;;;3.10
71205;BMP180;58935;54.498;18.544;2024-01-11T13:53:48;101123.80;;;3.10
71205;BMP180;58935;54.498;18.544;2024-01-11T13:56:16;101116.60;;;3.10
71205;BMP180;58935;54.498;18.544;2024-01-11T13:58:42;101118.60;;;3.06
71205;BMP180;58935;54.498;18.544;2024-01-11T14:01:10;101125.00;;;3.00